Terminal Aerodrome Forecast
Issued by NWS Shreveport, LA

Home | Current Version | Previous Version | Text Only | Print | Product List | Glossary On
Versions: 1 2 3 4 5 6 7 8 9 10 11 12 13 14 15 16 17 18 19 20 21 22 23 24
000
FTUS44 KSHV 280712 AAA
TAFSHV
TAF AMD
KSHV 280712Z 2807/2906 03012KT P6SM VCSH BKN045 OVC080
      TEMPO 2807/2809 4SM TSRA BR OVC030CB
     FM281000 03009KT P6SM BKN015 OVC025
     FM281500 02010G15KT P6SM BKN010 OVC020
     FM281900 01013G20KT P6SM VCTS BKN025CB OVC035
     FM290100 36008KT P6SM BKN015 OVC025=

USA.gov is the U.S. government's official web portal to all federal, state and local government web resources and services.